createdAt,value
2018-03-15T00:01:47.781Z,12.50
2018-03-15T00:04:16.266Z,11.93
2018-03-15T00:06:43.705Z,12.87
2018-03-15T00:09:11.197Z,11.93
2018-03-15T00:11:38.719Z,12.33
2018-03-15T00:14:06.201Z,12.23
2018-03-15T00:16:33.650Z,11.97
2018-03-15T00:19:01.089Z,12.50
2018-03-15T00:21:28.551Z,12.80
2018-03-15T00:23:56.010Z,12.83
2018-03-15T00:26:24.392Z,11.47
2018-03-15T00:28:52.421Z,12.10
2018-03-15T00:31:19.894Z,11.60
2018-03-15T00:33:47.438Z,12.70
2018-03-15T00:36:14.934Z,13.03
2018-03-15T00:38:43.424Z,12.60
2018-03-15T00:41:10.953Z,12.07
2018-03-15T00:43:38.439Z,12.07
2018-03-15T00:46:05.997Z,12.43
2018-03-15T00:48:33.502Z,11.53
2018-03-15T00:51:00.997Z,12.60
2018-03-15T00:53:28.477Z,12.20
2018-03-15T00:55:55.992Z,12.23
2018-03-15T00:58:23.484Z,12.37
2018-03-15T01:00:50.968Z,12.57
2018-03-15T01:03:18.485Z,12.60
2018-03-15T01:05:45.960Z,12.33
2018-03-15T01:08:13.436Z,13.10
2018-03-15T01:10:40.932Z,12.97
2018-03-15T01:13:08.400Z,12.37
2018-03-15T01:15:35.900Z,13.17
2018-03-15T01:18:03.365Z,12.33
2018-03-15T01:20:30.860Z,12.97
2018-03-15T01:22:58.344Z,12.87
2018-03-15T01:25:25.822Z,12.57
2018-03-15T01:27:53.310Z,13.23
2018-03-15T01:30:20.826Z,12.87
2018-03-15T01:32:48.348Z,13.70
2018-03-15T01:35:15.801Z,13.30
2018-03-15T01:37:43.252Z,13.40
2018-03-15T01:40:10.694Z,12.40
2018-03-15T01:42:38.142Z,12.47
2018-03-15T01:45:05.623Z,12.80
2018-03-15T01:47:33.068Z,13.10
2018-03-15T01:50:00.519Z,12.20
2018-03-15T01:52:27.996Z,13.43
2018-03-15T01:54:55.434Z,12.27
2018-03-15T01:57:22.937Z,12.33
2018-03-15T01:59:50.368Z,12.80
2018-03-15T02:02:17.828Z,12.77
2018-03-15T02:04:45.400Z,13.57
2018-03-15T02:07:12.860Z,12.63
2018-03-15T02:09:40.315Z,13.13
2018-03-15T02:12:07.775Z,13.10
2018-03-15T02:14:35.236Z,12.60
2018-03-15T02:17:02.685Z,13.53
2018-03-15T02:19:30.110Z,13.43
2018-03-15T02:21:57.597Z,13.27
2018-03-15T02:24:25.076Z,13.00
2018-03-15T02:26:52.539Z,13.30
2018-03-15T02:29:20.025Z,13.27
2018-03-15T02:31:47.505Z,13.83
2018-03-15T02:34:14.944Z,13.77
2018-03-15T02:36:42.396Z,14.03
2018-03-15T02:39:09.910Z,12.70
2018-03-15T02:41:37.393Z,13.63
2018-03-15T02:44:04.838Z,13.57
2018-03-15T02:46:32.349Z,13.77
2018-03-15T02:48:59.817Z,14.50
2018-03-15T02:51:27.328Z,14.50
2018-03-15T02:53:54.776Z,13.83
2018-03-15T02:56:22.266Z,14.00
2018-03-15T02:58:49.703Z,13.93
2018-03-15T03:01:17.172Z,14.13
2018-03-15T03:03:44.629Z,14.33
2018-03-15T03:06:12.079Z,13.83
2018-03-15T03:08:39.593Z,14.47
2018-03-15T03:11:07.132Z,14.40
2018-03-15T03:13:34.616Z,14.87
2018-03-15T03:16:02.111Z,14.70
2018-03-15T03:18:29.602Z,14.80
2018-03-15T03:20:57.085Z,14.97
2018-03-15T03:23:24.533Z,15.43
2018-03-15T03:25:51.986Z,16.97
2018-03-15T03:28:19.445Z,15.43
2018-03-15T03:30:46.907Z,16.47
2018-03-15T03:33:14.376Z,16.57
2018-03-15T03:35:41.851Z,15.70
2018-03-15T03:38:09.294Z,16.10
2018-03-15T03:40:36.756Z,16.43
2018-03-15T03:43:05.051Z,17.47
2018-03-15T03:45:32.496Z,16.97
2018-03-15T03:47:59.951Z,17.83
2018-03-15T03:50:27.437Z,17.43
2018-03-15T03:52:54.935Z,17.03
2018-03-15T03:55:22.436Z,17.27
2018-03-15T03:57:49.880Z,18.63
2018-03-15T04:00:17.382Z,17.23
2018-03-15T04:02:44.832Z,16.97
2018-03-15T04:05:12.331Z,18.03
2018-03-15T04:07:39.790Z,17.77
2018-03-15T04:10:07.277Z,17.57
2018-03-15T04:12:34.728Z,18.67
2018-03-15T04:15:02.194Z,18.50
2018-03-15T04:17:29.650Z,19.00
2018-03-15T04:19:57.168Z,19.60
2018-03-15T04:22:24.623Z,20.10
2018-03-15T04:24:52.148Z,19.33
2018-03-15T04:27:19.587Z,18.27
2018-03-15T04:29:47.050Z,19.03
2018-03-15T04:32:14.502Z,18.20
2018-03-15T04:34:41.948Z,18.37
2018-03-15T04:37:09.404Z,18.63
2018-03-15T04:39:36.875Z,19.17
2018-03-15T04:42:04.394Z,18.40
2018-03-15T04:44:31.848Z,17.27
2018-03-15T04:46:59.308Z,17.57
2018-03-15T04:49:26.788Z,18.13
2018-03-15T04:51:54.240Z,18.80
2018-03-15T04:54:21.718Z,19.37
2018-03-15T04:56:49.169Z,18.33
2018-03-15T04:59:16.609Z,17.83
2018-03-15T05:01:44.114Z,18.97
2018-03-15T05:04:11.568Z,19.07
2018-03-15T05:06:39.039Z,18.90
2018-03-15T05:09:06.514Z,19.27
2018-03-15T05:11:33.976Z,19.60
2018-03-15T05:14:01.434Z,19.17
2018-03-15T05:16:28.885Z,20.07
2018-03-15T05:18:56.356Z,20.40
2018-03-15T05:21:23.801Z,19.07
2018-03-15T05:23:51.283Z,19.83
2018-03-15T05:26:18.739Z,20.43
2018-03-15T05:28:46.205Z,19.80
2018-03-15T05:31:13.678Z,19.73
2018-03-15T05:33:41.153Z,20.17
2018-03-15T05:36:08.622Z,20.60
2018-03-15T05:38:36.077Z,20.97
2018-03-15T05:41:04.335Z,20.60
2018-03-15T05:43:31.843Z,20.30
2018-03-15T05:45:59.305Z,20.43
2018-03-15T05:48:26.792Z,20.50
2018-03-15T05:50:54.306Z,19.80
2018-03-15T05:53:21.804Z,21.17
2018-03-15T05:55:49.560Z,19.40
2018-03-15T05:58:16.997Z,19.37
2018-03-15T06:00:44.479Z,20.33
2018-03-15T06:03:11.974Z,20.80
2018-03-15T06:05:39.450Z,18.87
2018-03-15T06:08:06.951Z,19.90
2018-03-15T06:10:34.467Z,20.30
2018-03-15T06:13:01.961Z,20.23
2018-03-15T06:15:29.404Z,19.43
2018-03-15T06:17:56.851Z,20.27
2018-03-15T06:20:24.332Z,19.30
2018-03-15T06:22:51.818Z,19.03
2018-03-15T06:25:19.281Z,20.47
2018-03-15T06:27:46.808Z,20.63
2018-03-15T06:30:14.309Z,19.57
2018-03-15T06:32:41.849Z,18.53
2018-03-15T06:35:09.293Z,19.30
2018-03-15T06:37:36.747Z,19.70
2018-03-15T06:40:04.225Z,19.13
2018-03-15T06:42:31.674Z,18.50
2018-03-15T06:44:59.189Z,18.77
2018-03-15T06:47:26.647Z,17.53
2018-03-15T06:49:54.111Z,18.67
2018-03-15T06:52:21.578Z,18.40
2018-03-15T06:54:49.123Z,18.70
2018-03-15T06:57:16.579Z,17.10
2018-03-15T06:59:44.016Z,17.77
2018-03-15T07:02:11.483Z,17.20
2018-03-15T07:04:38.923Z,18.20
2018-03-15T07:07:07.285Z,17.73
2018-03-15T07:09:40.353Z,17.73
2018-03-15T07:12:07.880Z,16.67
2018-03-15T07:14:35.345Z,18.73
2018-03-15T07:17:02.804Z,18.37
2018-03-15T07:19:30.264Z,17.57
2018-03-15T07:21:57.770Z,18.20
2018-03-15T07:24:30.229Z,19.00
2018-03-15T07:26:57.783Z,18.43
2018-03-15T07:29:25.232Z,20.17
2018-03-15T07:31:52.726Z,19.77
2018-03-15T07:34:20.195Z,20.63
2018-03-15T07:36:47.671Z,20.33
2018-03-15T07:39:15.201Z,20.57
2018-03-15T07:41:42.675Z,21.00
2018-03-15T07:44:10.105Z,21.37
2018-03-15T07:46:37.611Z,21.97
2018-03-15T07:49:05.079Z,21.63
2018-03-15T07:51:32.563Z,20.30
2018-03-15T07:54:00.079Z,20.43
2018-03-15T07:56:27.615Z,21.60
2018-03-15T07:58:55.071Z,22.37
2018-03-15T08:01:22.593Z,21.90
2018-03-15T08:03:50.123Z,23.27
2018-03-15T08:06:17.573Z,23.60
2018-03-15T08:08:45.011Z,23.90
2018-03-15T08:11:12.488Z,23.57
2018-03-15T08:13:39.931Z,23.53
2018-03-15T08:16:07.427Z,23.53
2018-03-15T08:18:34.915Z,23.63
2018-03-15T08:21:02.457Z,23.37
2018-03-15T08:23:29.959Z,24.73
2018-03-15T08:25:57.625Z,24.47
2018-03-15T08:28:25.137Z,26.47
2018-03-15T08:30:52.581Z,24.23
2018-03-15T08:33:20.067Z,23.90
2018-03-15T08:35:47.650Z,23.97
2018-03-15T08:38:15.111Z,25.63
2018-03-15T08:40:42.628Z,25.93
2018-03-15T08:43:10.081Z,22.70
2018-03-15T08:45:37.597Z,23.10
2018-03-15T08:48:05.361Z,23.83
2018-03-15T08:50:32.864Z,23.70
2018-03-15T08:53:00.353Z,23.63
2018-03-15T08:55:27.819Z,22.33
2018-03-15T08:57:55.313Z,23.10
2018-03-15T09:00:22.844Z,23.53
2018-03-15T09:02:50.313Z,22.83
2018-03-15T09:05:17.867Z,22.07
2018-03-15T09:07:45.231Z,22.80
2018-03-15T09:10:12.693Z,24.23
2018-03-15T09:12:40.180Z,27.80
2018-03-15T09:15:07.667Z,24.30
2018-03-15T09:17:35.153Z,21.57
2018-03-15T09:20:02.627Z,22.70
2018-03-15T09:22:30.155Z,21.67
2018-03-15T09:24:57.669Z,21.73
2018-03-15T09:27:25.130Z,21.33
2018-03-15T09:29:52.583Z,22.67
2018-03-15T09:32:20.085Z,21.17
2018-03-15T09:34:47.609Z,20.63
2018-03-15T09:37:15.143Z,21.77
2018-03-15T09:39:42.607Z,21.33
2018-03-15T09:42:10.139Z,20.13
2018-03-15T09:44:37.644Z,22.00
2018-03-15T09:47:05.478Z,21.57
2018-03-15T09:49:32.994Z,20.47
2018-03-15T09:52:00.511Z,20.30
2018-03-15T09:54:27.967Z,21.63
2018-03-15T09:56:55.951Z,19.53
2018-03-15T09:59:23.462Z,20.67
2018-03-15T10:01:50.903Z,18.43
2018-03-15T10:04:18.727Z,19.57
2018-03-15T10:06:46.311Z,18.03
2018-03-15T10:09:13.857Z,17.17
2018-03-15T10:11:41.383Z,16.80
2018-03-15T10:14:08.878Z,16.70
2018-03-15T10:16:36.411Z,17.17
2018-03-15T10:19:03.877Z,16.90
2018-03-15T10:21:31.371Z,17.30
2018-03-15T10:23:58.882Z,16.97
2018-03-15T10:26:26.345Z,16.53
2018-03-15T10:28:53.841Z,17.50
2018-03-15T10:31:21.333Z,16.40
2018-03-15T10:33:48.807Z,16.97
2018-03-15T10:36:16.301Z,16.83
2018-03-15T10:38:43.750Z,18.03
2018-03-15T10:41:11.250Z,17.07
2018-03-15T10:43:38.775Z,17.03
2018-03-15T10:46:06.253Z,16.70
2018-03-15T10:48:33.737Z,15.30
2018-03-15T10:51:01.188Z,16.83
2018-03-15T10:53:28.715Z,16.50
2018-03-15T10:55:56.166Z,17.23
2018-03-15T10:58:23.642Z,16.43
2018-03-15T11:00:56.817Z,15.93
2018-03-15T11:03:29.889Z,16.35
2018-03-15T11:06:02.948Z,16.20
2018-03-15T11:08:37.053Z,16.23
2018-03-15T11:11:04.571Z,16.60
2018-03-15T11:13:32.031Z,16.77
2018-03-15T11:15:59.541Z,18.20
2018-03-15T11:18:27.020Z,16.12
2018-03-15T11:20:54.540Z,15.88
2018-03-15T11:23:22.021Z,16.07
2018-03-15T11:25:49.589Z,15.33
2018-03-15T11:28:17.066Z,15.50
2018-03-15T11:30:44.543Z,14.90
2018-03-15T11:33:12.008Z,15.67
2018-03-15T11:35:39.505Z,15.93
2018-03-15T11:38:06.961Z,15.93
2018-03-15T11:40:34.441Z,15.33
2018-03-15T11:43:01.923Z,14.60
2018-03-15T11:45:29.364Z,14.75
2018-03-15T11:47:56.906Z,14.93
2018-03-15T11:50:24.474Z,14.57
2018-03-15T11:52:51.949Z,14.73
2018-03-15T11:55:19.438Z,13.57
2018-03-15T11:57:46.930Z,14.02
2018-03-15T12:00:14.407Z,13.80
2018-03-15T12:02:41.981Z,13.77
2018-03-15T12:05:09.464Z,14.43
2018-03-15T12:07:36.996Z,13.75
2018-03-15T12:10:04.453Z,14.43
2018-03-15T12:12:31.968Z,14.00
2018-03-15T12:14:59.538Z,14.07
2018-03-15T12:17:27.068Z,14.47
2018-03-15T12:19:54.579Z,14.13
2018-03-15T12:22:22.086Z,14.47
2018-03-15T12:24:49.528Z,14.70
2018-03-15T12:27:17.110Z,13.70
2018-03-15T12:29:44.639Z,13.57
2018-03-15T12:32:12.177Z,13.50
2018-03-15T12:34:39.704Z,13.70
2018-03-15T12:37:07.158Z,14.23
2018-03-15T12:39:34.661Z,13.03
2018-03-15T12:42:02.129Z,13.87
2018-03-15T12:44:29.563Z,13.90
2018-03-15T12:46:57.060Z,13.23
2018-03-15T12:49:24.535Z,14.23
2018-03-15T12:51:51.980Z,12.80
2018-03-15T12:54:19.454Z,13.87
2018-03-15T12:56:47.006Z,13.53
2018-03-15T12:59:14.584Z,13.77
2018-03-15T13:01:42.144Z,14.13
2018-03-15T13:04:09.618Z,15.17
2018-03-15T13:06:37.080Z,14.57
2018-03-15T13:09:04.536Z,14.33
2018-03-15T13:11:31.983Z,14.73
2018-03-15T13:13:59.436Z,15.10
2018-03-15T13:16:26.928Z,14.00
2018-03-15T13:18:54.424Z,13.97
2018-03-15T13:21:21.926Z,14.83
2018-03-15T13:23:49.558Z,15.10
2018-03-15T13:26:16.998Z,14.10
2018-03-15T13:28:44.452Z,14.30
2018-03-15T13:31:11.990Z,13.77
2018-03-15T13:33:39.482Z,13.57
2018-03-15T13:36:06.940Z,13.93
2018-03-15T13:38:34.487Z,13.20
2018-03-15T13:41:01.964Z,13.50
2018-03-15T13:43:29.446Z,14.30
2018-03-15T13:45:56.930Z,13.00
2018-03-15T13:48:24.413Z,13.40
2018-03-15T13:50:52.012Z,13.37
2018-03-15T13:53:19.582Z,13.07
2018-03-15T13:55:47.032Z,13.67
2018-03-15T13:58:14.568Z,13.67
2018-03-15T14:00:42.044Z,14.35
2018-03-15T14:03:09.504Z,14.30
2018-03-15T14:05:37.014Z,15.20
2018-03-15T14:08:04.502Z,14.60
2018-03-15T14:10:31.992Z,14.90
2018-03-15T14:12:59.447Z,14.97
2018-03-15T14:15:26.936Z,14.60
2018-03-15T14:17:54.426Z,15.27
2018-03-15T14:20:21.945Z,14.47
2018-03-15T14:22:49.487Z,13.40
2018-03-15T14:25:17.105Z,13.63
2018-03-15T14:27:44.566Z,13.40
2018-03-15T14:30:12.024Z,13.43
2018-03-15T14:32:39.501Z,12.43
2018-03-15T14:35:06.984Z,13.40
2018-03-15T14:37:34.483Z,12.67
2018-03-15T14:40:01.970Z,12.60
2018-03-15T14:42:29.450Z,13.00
2018-03-15T14:44:56.962Z,14.53
2018-03-15T14:47:24.459Z,15.10
2018-03-15T14:49:52.003Z,15.30
2018-03-15T14:52:19.458Z,16.13
2018-03-15T14:54:52.031Z,15.83
2018-03-15T14:57:19.534Z,16.27
2018-03-15T14:59:47.038Z,15.33
2018-03-15T15:02:14.517Z,15.43
2018-03-15T15:04:42.020Z,15.60
2018-03-15T15:07:09.566Z,15.53
2018-03-15T15:09:37.053Z,16.57
2018-03-15T15:12:04.531Z,15.70
2018-03-15T15:14:32.021Z,16.07
2018-03-15T15:16:59.478Z,15.50
2018-03-15T15:19:27.025Z,15.67
2018-03-15T15:21:54.479Z,16.20
2018-03-15T15:24:26.966Z,15.97
2018-03-15T15:26:54.445Z,15.20
2018-03-15T15:29:21.922Z,15.87
2018-03-15T15:31:49.415Z,15.50
2018-03-15T15:34:16.930Z,15.63
2018-03-15T15:36:44.437Z,14.97
2018-03-15T15:39:11.892Z,14.93
2018-03-15T15:41:39.387Z,15.13
2018-03-15T15:44:06.889Z,15.40
2018-03-15T15:46:34.379Z,14.83
2018-03-15T15:49:01.884Z,14.93
2018-03-15T15:51:29.323Z,15.10
2018-03-15T15:53:56.858Z,15.30
2018-03-15T15:56:24.322Z,14.37
2018-03-15T15:58:51.842Z,15.10
2018-03-15T16:01:19.321Z,15.20
2018-03-15T16:03:46.809Z,14.40
2018-03-15T16:06:14.270Z,14.87
2018-03-15T16:08:42.637Z,15.63
2018-03-15T16:11:12.179Z,15.83
2018-03-15T16:13:39.625Z,16.47
2018-03-15T16:16:07.098Z,15.67
2018-03-15T16:18:34.566Z,15.33
2018-03-15T16:21:02.107Z,16.27
2018-03-15T16:23:29.600Z,17.53
2018-03-15T16:25:57.125Z,15.97
2018-03-15T16:28:24.574Z,16.83
2018-03-15T16:30:52.029Z,16.77
2018-03-15T16:33:19.481Z,16.73
2018-03-15T16:35:47.084Z,16.70
2018-03-15T16:38:14.588Z,18.20
2018-03-15T16:40:42.069Z,17.60
2018-03-15T16:43:09.547Z,17.53
2018-03-15T16:45:37.083Z,17.83
2018-03-15T16:48:04.553Z,16.90
2018-03-15T16:50:31.998Z,18.30
2018-03-15T16:52:59.498Z,17.33
2018-03-15T16:55:27.051Z,18.60
2018-03-15T16:57:56.217Z,16.73
2018-03-15T17:00:23.780Z,16.60
2018-03-15T17:02:51.327Z,17.63
2018-03-15T17:05:18.792Z,16.67
2018-03-15T17:07:46.287Z,16.43
2018-03-15T17:10:13.770Z,16.97
2018-03-15T17:12:41.247Z,16.37
2018-03-15T17:15:09.633Z,18.30
2018-03-15T17:17:37.114Z,17.93
2018-03-15T17:20:04.559Z,17.40
2018-03-15T17:22:32.167Z,18.23
2018-03-15T17:24:59.652Z,18.53
2018-03-15T17:27:27.126Z,19.23
2018-03-15T17:29:54.592Z,19.37
2018-03-15T17:32:22.134Z,18.47
2018-03-15T17:34:49.661Z,19.80
2018-03-15T17:37:17.174Z,21.27
2018-03-15T17:39:44.632Z,20.20
2018-03-15T17:42:12.093Z,20.07
2018-03-15T17:44:39.549Z,21.30
2018-03-15T17:47:07.176Z,20.90
2018-03-15T17:49:34.692Z,21.00
2018-03-15T17:52:02.883Z,21.07
2018-03-15T17:54:30.673Z,21.87
2018-03-15T17:56:58.300Z,22.90
2018-03-15T17:59:26.162Z,21.83
2018-03-15T18:01:53.624Z,24.27
2018-03-15T18:04:21.212Z,23.87
2018-03-15T18:06:48.653Z,24.37
2018-03-15T18:09:17.099Z,25.13
2018-03-15T18:11:44.703Z,24.93
2018-03-15T18:14:12.252Z,25.40
2018-03-15T18:16:40.527Z,26.33
2018-03-15T18:19:07.970Z,25.47
2018-03-15T18:21:35.506Z,26.37
2018-03-15T18:24:02.949Z,27.93
2018-03-15T18:26:30.506Z,28.33
2018-03-15T18:28:58.019Z,28.00
2018-03-15T18:31:25.608Z,28.87
2018-03-15T18:33:53.174Z,30.33
2018-03-15T18:36:21.323Z,29.27
2018-03-15T18:38:48.844Z,30.77
2018-03-15T18:41:16.433Z,30.27
2018-03-15T18:43:43.936Z,31.40
2018-03-15T18:46:11.461Z,30.20
2018-03-15T18:48:38.989Z,31.57
2018-03-15T18:51:06.451Z,33.73
2018-03-15T18:53:33.951Z,34.20
2018-03-15T18:56:01.479Z,33.10
2018-03-15T18:58:29.117Z,31.80
2018-03-15T19:00:56.601Z,33.37
2018-03-15T19:03:24.035Z,34.60
2018-03-15T19:05:51.754Z,34.10
2018-03-15T19:08:19.254Z,33.53
2018-03-15T19:10:46.746Z,34.30
2018-03-15T19:13:14.354Z,34.13
2018-03-15T19:15:41.854Z,34.30
2018-03-15T19:18:09.328Z,35.03
2018-03-15T19:20:36.884Z,35.10
2018-03-15T19:23:04.393Z,35.03
2018-03-15T19:25:31.888Z,34.83
2018-03-15T19:27:59.326Z,34.07
2018-03-15T19:30:26.906Z,35.00
2018-03-15T19:32:54.685Z,34.30
2018-03-15T19:35:22.505Z,32.70
2018-03-15T19:37:49.973Z,34.80
2018-03-15T19:40:17.478Z,35.10
2018-03-15T19:42:44.994Z,36.20
2018-03-15T19:45:12.493Z,37.07
2018-03-15T19:47:39.996Z,35.37
2018-03-15T19:50:07.618Z,33.90
2018-03-15T19:52:35.122Z,35.07
2018-03-15T19:55:02.631Z,35.43
2018-03-15T19:57:30.136Z,34.93
2018-03-15T19:59:57.621Z,36.33
2018-03-15T20:02:26.156Z,36.17
2018-03-15T20:04:54.075Z,34.97
2018-03-15T20:07:21.615Z,37.30
2018-03-15T20:09:49.121Z,35.60
2018-03-15T20:12:16.716Z,36.03
2018-03-15T20:14:44.268Z,36.87
2018-03-15T20:17:11.955Z,36.30
2018-03-15T20:19:39.534Z,37.93
2018-03-15T20:22:07.020Z,37.43
2018-03-15T20:24:34.516Z,35.47
2018-03-15T20:27:02.010Z,37.17
2018-03-15T20:29:29.582Z,37.50
2018-03-15T20:31:57.120Z,37.17
2018-03-15T20:34:29.706Z,36.20
2018-03-15T20:36:57.195Z,37.77
2018-03-15T20:39:30.151Z,37.20
2018-03-15T20:41:57.702Z,37.87
2018-03-15T20:44:25.255Z,38.13
2018-03-15T20:46:58.346Z,36.97
2018-03-15T20:49:25.888Z,37.00
2018-03-15T20:51:53.374Z,39.23
2018-03-15T20:54:30.472Z,37.27
2018-03-15T20:56:57.944Z,38.67
2018-03-15T20:59:25.404Z,40.27
2018-03-15T21:01:52.924Z,39.10
2018-03-15T21:04:20.454Z,37.00
2018-03-15T21:06:47.904Z,38.67
2018-03-15T21:09:15.360Z,39.43
2018-03-15T21:11:43.695Z,38.70
2018-03-15T21:14:11.212Z,39.67
2018-03-15T21:16:38.699Z,40.10
2018-03-15T21:19:06.204Z,36.57
2018-03-15T21:21:33.808Z,39.97
2018-03-15T21:24:01.259Z,36.97
2018-03-15T21:26:28.713Z,37.63
2018-03-15T21:28:56.190Z,38.93
2018-03-15T21:31:23.684Z,37.47
2018-03-15T21:33:51.186Z,38.03
2018-03-15T21:36:18.699Z,38.97
2018-03-15T21:38:46.168Z,38.97
2018-03-15T21:41:13.675Z,40.57
2018-03-15T21:43:41.190Z,40.57
2018-03-15T21:46:08.663Z,38.33
2018-03-15T21:48:36.206Z,39.10
2018-03-15T21:51:03.720Z,39.53
2018-03-15T21:53:36.132Z,41.13
2018-03-15T21:56:03.702Z,38.83
2018-03-15T21:58:31.160Z,37.17
2018-03-15T22:00:58.734Z,39.17
2018-03-15T22:03:26.176Z,38.40
2018-03-15T22:05:53.728Z,38.90
2018-03-15T22:08:21.172Z,37.13
2018-03-15T22:10:48.659Z,40.10
2018-03-15T22:13:16.112Z,39.27
2018-03-15T22:15:43.564Z,38.80
2018-03-15T22:18:11.020Z,38.33
2018-03-15T22:20:38.469Z,38.93
2018-03-15T22:23:05.954Z,38.60
2018-03-15T22:25:33.414Z,40.73
2018-03-15T22:28:01.757Z,40.87
2018-03-15T22:30:29.256Z,39.00
2018-03-15T22:32:56.686Z,38.53
2018-03-15T22:35:24.156Z,40.10
2018-03-15T22:37:51.620Z,39.70
2018-03-15T22:40:19.102Z,40.37
2018-03-15T22:42:46.604Z,40.20
2018-03-15T22:45:14.078Z,40.93
2018-03-15T22:47:41.557Z,39.50
2018-03-15T22:50:09.092Z,41.30
2018-03-15T22:52:36.618Z,40.53
2018-03-15T22:55:04.168Z,40.47
2018-03-15T22:57:31.568Z,39.37
2018-03-15T22:59:59.079Z,40.13
2018-03-15T23:02:26.582Z,40.07
2018-03-15T23:04:54.094Z,41.33
2018-03-15T23:07:21.572Z,42.27
2018-03-15T23:09:49.027Z,40.23
2018-03-15T23:12:16.509Z,40.30
2018-03-15T23:14:43.982Z,41.77
2018-03-15T23:17:11.426Z,42.17
2018-03-15T23:19:39.058Z,40.10
2018-03-15T23:22:06.962Z,42.80
2018-03-15T23:24:34.443Z,41.30
2018-03-15T23:27:01.922Z,41.47
2018-03-15T23:29:29.475Z,41.33
2018-03-15T23:31:56.969Z,41.83
2018-03-15T23:34:24.443Z,43.17
2018-03-15T23:36:51.908Z,42.07
2018-03-15T23:39:19.397Z,41.53
2018-03-15T23:41:46.891Z,40.93
2018-03-15T23:44:14.350Z,43.97
2018-03-15T23:46:41.789Z,42.70
2018-03-15T23:49:09.236Z,42.03
2018-03-15T23:51:36.696Z,43.93
2018-03-15T23:54:04.132Z,42.60
2018-03-15T23:56:31.901Z,43.67
2018-03-15T23:58:59.441Z,42.60
